sensor_id;sensor_type;location;lat;lon;timestamp;pressure;altitude;pressure_sealevel;temperature;humidity
42385;BME280;28042;43.986;22.860;2023-07-09T00:01:51;101407.81;;;19.14;79.52
42385;BME280;28042;43.986;22.860;2023-07-09T00:04:17;101383.00;;;18.96;80.18
42385;BME280;28042;43.986;22.860;2023-07-09T00:06:43;101414.28;;;19.08;80.29
42385;BME280;28042;43.986;22.860;2023-07-09T00:09:17;101406.22;;;19.07;80.64
42385;BME280;28042;43.986;22.860;2023-07-09T00:11:44;101414.53;;;19.07;80.50
42385;BME280;28042;43.986;22.860;2023-07-09T00:14:11;101416.34;;;19.13;79.65
42385;BME280;28042;43.986;22.860;2023-07-09T00:16:39;101415.28;;;19.14;79.46
42385;BME280;28042;43.986;22.860;2023-07-09T00:19:11;101406.13;;;19.13;79.25
42385;BME280;28042;43.986;22.860;2023-07-09T00:21:39;101406.22;;;19.07;79.63
42385;BME280;28042;43.986;22.860;2023-07-09T00:24:06;101371.81;;;18.91;80.10
42385;BME280;28042;43.986;22.860;2023-07-09T00:26:31;101377.56;;;18.89;79.81
42385;BME280;28042;43.986;22.860;2023-07-09T00:28:58;101408.00;;;19.01;80.40
42385;BME280;28042;43.986;22.860;2023-07-09T00:31:24;101410.56;;;19.03;80.30
42385;BME280;28042;43.986;22.860;2023-07-09T00:33:49;101401.28;;;18.97;80.67
42385;BME280;28042;43.986;22.860;2023-07-09T00:36:31;101413.78;;;19.00;80.72
42385;BME280;28042;43.986;22.860;2023-07-09T00:38:57;101385.59;;;18.79;80.74
42385;BME280;28042;43.986;22.860;2023-07-09T00:41:26;101379.47;;;18.77;81.24
42385;BME280;28042;43.986;22.860;2023-07-09T00:43:53;101388.28;;;18.86;80.63
42385;BME280;28042;43.986;22.860;2023-07-09T00:48:47;101414.59;;;18.88;81.51
42385;BME280;28042;43.986;22.860;2023-07-09T00:51:17;101415.53;;;18.82;82.28
42385;BME280;28042;43.986;22.860;2023-07-09T00:53:46;101410.94;;;18.76;82.40
42385;BME280;28042;43.986;22.860;2023-07-09T00:56:20;101410.59;;;18.84;82.19
42385;BME280;28042;43.986;22.860;2023-07-09T00:58:51;101410.94;;;18.76;82.99
42385;BME280;28042;43.986;22.860;2023-07-09T01:01:18;101379.34;;;18.54;83.54
42385;BME280;28042;43.986;22.860;2023-07-09T01:03:49;101411.28;;;18.68;83.82
42385;BME280;28042;43.986;22.860;2023-07-09T01:06:34;101374.75;;;18.48;84.33
42385;BME280;28042;43.986;22.860;2023-07-09T01:09:02;101380.75;;;18.45;84.48
42385;BME280;28042;43.986;22.860;2023-07-09T01:11:28;101420.63;;;18.49;85.06
42385;BME280;28042;43.986;22.860;2023-07-09T01:13:57;101413.44;;;18.48;85.33
42385;BME280;28042;43.986;22.860;2023-07-09T01:16:27;101424.03;;;18.51;85.50
42385;BME280;28042;43.986;22.860;2023-07-09T01:18:54;101416.19;;;18.48;85.20
42385;BME280;28042;43.986;22.860;2023-07-09T01:21:20;101402.09;;;18.38;85.86
42385;BME280;28042;43.986;22.860;2023-07-09T01:23:47;101420.63;;;18.49;85.75
42385;BME280;28042;43.986;22.860;2023-07-09T01:26:16;101415.59;;;18.46;86.03
42385;BME280;28042;43.986;22.860;2023-07-09T01:28:42;101390.28;;;18.30;86.47
42385;BME280;28042;43.986;22.860;2023-07-09T01:31:10;101417.50;;;18.45;86.20
42385;BME280;28042;43.986;22.860;2023-07-09T01:33:37;101414.91;;;18.32;88.43
42385;BME280;28042;43.986;22.860;2023-07-09T01:36:05;101420.97;;;18.22;89.11
42385;BME280;28042;43.986;22.860;2023-07-09T01:38:32;101419.34;;;18.15;88.79
42385;BME280;28042;43.986;22.860;2023-07-09T01:40:59;101392.75;;;18.02;88.88
42385;BME280;28042;43.986;22.860;2023-07-09T01:43:25;101419.28;;;18.21;88.75
42385;BME280;28042;43.986;22.860;2023-07-09T01:45:52;101393.97;;;18.06;89.19
42385;BME280;28042;43.986;22.860;2023-07-09T01:48:20;101403.34;;;18.05;90.07
42385;BME280;28042;43.986;22.860;2023-07-09T01:50:47;101393.44;;;17.97;91.03
42385;BME280;28042;43.986;22.860;2023-07-09T01:53:16;101406.94;;;17.87;93.17
42385;BME280;28042;43.986;22.860;2023-07-09T01:55:43;101436.16;;;17.95;94.26
42385;BME280;28042;43.986;22.860;2023-07-09T01:58:09;101406.00;;;17.75;94.02
42385;BME280;28042;43.986;22.860;2023-07-09T02:00:36;101406.25;;;17.73;94.19
42385;BME280;28042;43.986;22.860;2023-07-09T02:03:03;101403.25;;;17.75;94.35
42385;BME280;28042;43.986;22.860;2023-07-09T02:05:33;101399.44;;;17.69;95.15
42385;BME280;28042;43.986;22.860;2023-07-09T02:07:59;101407.13;;;17.67;96.02
42385;BME280;28042;43.986;22.860;2023-07-09T02:10:25;101417.78;;;17.64;96.85
42385;BME280;28042;43.986;22.860;2023-07-09T02:12:50;101447.34;;;17.82;96.67
42385;BME280;28042;43.986;22.860;2023-07-09T02:15:16;101408.00;;;17.61;97.15
42385;BME280;28042;43.986;22.860;2023-07-09T02:17:42;101438.06;;;17.69;97.36
42385;BME280;28042;43.986;22.860;2023-07-09T02:20:09;101460.50;;;17.79;97.71
42385;BME280;28042;43.986;22.860;2023-07-09T02:22:35;101438.97;;;17.63;98.03
42385;BME280;28042;43.986;22.860;2023-07-09T02:25:02;101435.22;;;17.58;99.36
42385;BME280;28042;43.986;22.860;2023-07-09T02:27:27;101422.22;;;17.40;100.00
42385;BME280;28042;43.986;22.860;2023-07-09T02:29:53;101464.50;;;17.59;100.00
42385;BME280;28042;43.986;22.860;2023-07-09T02:32:23;101465.34;;;17.59;100.00
42385;BME280;28042;43.986;22.860;2023-07-09T02:34:49;101465.34;;;17.59;100.00
42385;BME280;28042;43.986;22.860;2023-07-09T02:37:19;101470.06;;;17.52;100.00
42385;BME280;28042;43.986;22.860;2023-07-09T02:39:45;101471.84;;;17.46;100.00
42385;BME280;28042;43.986;22.860;2023-07-09T02:42:12;101480.03;;;17.53;100.00
42385;BME280;28042;43.986;22.860;2023-07-09T02:44:38;101484.72;;;17.52;100.00
42385;BME280;28042;43.986;22.860;2023-07-09T02:47:05;101473.06;;;17.50;100.00
42385;BME280;28042;43.986;22.860;2023-07-09T02:49:30;101473.91;;;17.51;100.00
42385;BME280;28042;43.986;22.860;2023-07-09T02:51:56;101487.94;;;17.49;100.00
42385;BME280;28042;43.986;22.860;2023-07-09T02:54:21;101471.88;;;17.40;100.00
42385;BME280;28042;43.986;22.860;2023-07-09T02:56:47;101449.09;;;17.19;100.00
42385;BME280;28042;43.986;22.860;2023-07-09T02:59:12;101459.28;;;17.19;100.00
42385;BME280;28042;43.986;22.860;2023-07-09T03:01:38;101485.22;;;17.43;100.00
42385;BME280;28042;43.986;22.860;2023-07-09T03:04:04;101487.13;;;17.42;100.00
42385;BME280;28042;43.986;22.860;2023-07-09T03:06:31;101459.84;;;17.28;100.00
42385;BME280;28042;43.986;22.860;2023-07-09T03:08:59;101464.03;;;17.37;100.00
42385;BME280;28042;43.986;22.860;2023-07-09T03:11:25;101462.75;;;17.39;100.00
42385;BME280;28042;43.986;22.860;2023-07-09T03:13:50;101467.44;;;17.39;100.00
42385;BME280;28042;43.986;22.860;2023-07-09T03:16:16;101459.16;;;17.39;100.00
42385;BME280;28042;43.986;22.860;2023-07-09T03:18:44;101498.00;;;17.62;100.00
42385;BME280;28042;43.986;22.860;2023-07-09T03:21:09;101494.16;;;17.63;100.00
42385;BME280;28042;43.986;22.860;2023-07-09T03:23:35;101482.34;;;17.56;100.00
42385;BME280;28042;43.986;22.860;2023-07-09T03:26:00;101494.56;;;17.73;100.00
42385;BME280;28042;43.986;22.860;2023-07-09T03:28:26;101508.50;;;17.78;100.00
42385;BME280;28042;43.986;22.860;2023-07-09T03:30:54;101491.56;;;17.75;100.00
42385;BME280;28042;43.986;22.860;2023-07-09T03:33:20;101503.09;;;17.90;99.75
42385;BME280;28042;43.986;22.860;2023-07-09T03:35:45;101473.03;;;17.82;98.67
42385;BME280;28042;43.986;22.860;2023-07-09T03:38:11;101495.72;;;18.27;97.69
42385;BME280;28042;43.986;22.860;2023-07-09T03:40:37;101492.00;;;18.88;95.56
42385;BME280;28042;43.986;22.860;2023-07-09T03:43:04;101477.34;;;19.60;89.05
42385;BME280;28042;43.986;22.860;2023-07-09T03:45:31;101474.69;;;20.12;84.28
42385;BME280;28042;43.986;22.860;2023-07-09T03:47:57;101490.81;;;20.90;80.15
42385;BME280;28042;43.986;22.860;2023-07-09T03:50:22;101492.00;;;21.23;76.24
42385;BME280;28042;43.986;22.860;2023-07-09T03:52:48;101479.22;;;21.22;75.15
42385;BME280;28042;43.986;22.860;2023-07-09T03:55:14;101498.28;;;21.97;73.51
42385;BME280;28042;43.986;22.860;2023-07-09T03:57:39;101473.66;;;22.61;69.50
42385;BME280;28042;43.986;22.860;2023-07-09T04:00:05;101496.72;;;23.32;66.64
42385;BME280;28042;43.986;22.860;2023-07-09T04:02:31;101492.78;;;23.55;64.84
42385;BME280;28042;43.986;22.860;2023-07-09T04:04:57;101479.69;;;23.88;63.64
42385;BME280;28042;43.986;22.860;2023-07-09T04:07:22;101497.41;;;24.09;62.99
42385;BME280;28042;43.986;22.860;2023-07-09T04:09:48;101468.56;;;23.93;62.46
42385;BME280;28042;43.986;22.860;2023-07-09T04:12:14;101498.34;;;24.30;61.64
42385;BME280;28042;43.986;22.860;2023-07-09T04:14:39;101499.75;;;24.27;61.68
42385;BME280;28042;43.986;22.860;2023-07-09T04:17:06;101475.22;;;24.92;58.99
42385;BME280;28042;43.986;22.860;2023-07-09T04:19:31;101494.66;;;25.75;56.46
42385;BME280;28042;43.986;22.860;2023-07-09T04:21:57;101497.97;;;26.17;52.79
42385;BME280;28042;43.986;22.860;2023-07-09T04:24:22;101491.47;;;26.53;51.19
42385;BME280;28042;43.986;22.860;2023-07-09T04:26:48;101501.03;;;27.01;49.72
42385;BME280;28042;43.986;22.860;2023-07-09T04:29:13;101506.75;;;26.75;48.66
42385;BME280;28042;43.986;22.860;2023-07-09T04:31:40;101516.63;;;26.58;49.62
42385;BME280;28042;43.986;22.860;2023-07-09T04:34:06;101517.94;;;26.86;48.46
42385;BME280;28042;43.986;22.860;2023-07-09T04:36:33;101494.06;;;27.43;47.39
42385;BME280;28042;43.986;22.860;2023-07-09T04:38:58;101510.88;;;27.43;47.02
42385;BME280;28042;43.986;22.860;2023-07-09T04:41:24;101518.16;;;27.04;46.64
42385;BME280;28042;43.986;22.860;2023-07-09T04:43:50;101498.97;;;26.67;48.12
42385;BME280;28042;43.986;22.860;2023-07-09T04:46:15;101495.53;;;26.86;48.82
42385;BME280;28042;43.986;22.860;2023-07-09T04:48:41;101515.03;;;27.01;48.26
42385;BME280;28042;43.986;22.860;2023-07-09T04:51:06;101515.72;;;27.32;48.21
42385;BME280;28042;43.986;22.860;2023-07-09T04:53:32;101494.53;;;27.16;47.25
42385;BME280;28042;43.986;22.860;2023-07-09T04:55:57;101514.28;;;27.40;47.20
42385;BME280;28042;43.986;22.860;2023-07-09T04:58:23;101496.84;;;27.48;46.83
42385;BME280;28042;43.986;22.860;2023-07-09T05:00:49;101515.34;;;27.49;46.83
42385;BME280;28042;43.986;22.860;2023-07-09T05:03:16;101507.53;;;27.80;46.25
42385;BME280;28042;43.986;22.860;2023-07-09T05:05:45;101504.69;;;28.14;45.65
42385;BME280;28042;43.986;22.860;2023-07-09T05:08:15;101501.19;;;28.32;45.24
42385;BME280;28042;43.986;22.860;2023-07-09T05:10:47;101485.69;;;28.06;45.83
42385;BME280;28042;43.986;22.860;2023-07-09T05:13:15;101513.59;;;27.58;46.35
42385;BME280;28042;43.986;22.860;2023-07-09T05:15:43;101494.28;;;27.12;48.23
42385;BME280;28042;43.986;22.860;2023-07-09T05:18:10;101486.59;;;27.72;46.32
42385;BME280;28042;43.986;22.860;2023-07-09T05:20:36;101490.94;;;28.12;45.52
42385;BME280;28042;43.986;22.860;2023-07-09T05:23:01;101508.50;;;28.23;45.53
42385;BME280;28042;43.986;22.860;2023-07-09T05:25:27;101508.91;;;28.64;44.64
42385;BME280;28042;43.986;22.860;2023-07-09T05:27:52;101489.84;;;28.85;43.56
42385;BME280;28042;43.986;22.860;2023-07-09T05:30:19;101482.50;;;28.17;44.16
42385;BME280;28042;43.986;22.860;2023-07-09T05:32:45;101485.03;;;28.67;44.82
42385;BME280;28042;43.986;22.860;2023-07-09T05:35:10;101507.75;;;29.13;43.29
42385;BME280;28042;43.986;22.860;2023-07-09T05:37:37;101514.16;;;29.57;42.67
42385;BME280;28042;43.986;22.860;2023-07-09T05:40:03;101481.22;;;30.36;41.11
42385;BME280;28042;43.986;22.860;2023-07-09T05:42:30;101497.09;;;30.59;39.40
42385;BME280;28042;43.986;22.860;2023-07-09T05:44:56;101508.59;;;31.63;38.18
42385;BME280;28042;43.986;22.860;2023-07-09T05:47:21;101503.78;;;32.08;36.22
42385;BME280;28042;43.986;22.860;2023-07-09T05:49:47;101495.97;;;31.83;36.44
42385;BME280;28042;43.986;22.860;2023-07-09T05:52:15;101498.88;;;31.33;37.45
42385;BME280;28042;43.986;22.860;2023-07-09T05:54:40;101506.13;;;30.56;37.87
42385;BME280;28042;43.986;22.860;2023-07-09T05:57:07;101509.38;;;30.36;38.43
42385;BME280;28042;43.986;22.860;2023-07-09T05:59:32;101491.44;;;30.59;37.49
42385;BME280;28042;43.986;22.860;2023-07-09T06:01:58;101511.56;;;30.39;38.21
42385;BME280;28042;43.986;22.860;2023-07-09T06:04:25;101512.91;;;30.28;38.09
42385;BME280;28042;43.986;22.860;2023-07-09T06:06:51;101511.69;;;30.34;38.35
42385;BME280;28042;43.986;22.860;2023-07-09T06:09:17;101507.78;;;31.12;36.84
42385;BME280;28042;43.986;22.860;2023-07-09T06:11:42;101499.13;;;31.22;36.56
42385;BME280;28042;43.986;22.860;2023-07-09T06:14:09;101505.81;;;31.13;36.76
42385;BME280;28042;43.986;22.860;2023-07-09T06:16:34;101478.53;;;30.58;37.31
42385;BME280;28042;43.986;22.860;2023-07-09T06:19:00;101508.72;;;31.08;35.49
42385;BME280;28042;43.986;22.860;2023-07-09T06:21:25;101485.06;;;30.40;36.84
42385;BME280;28042;43.986;22.860;2023-07-09T06:23:51;101511.13;;;30.18;36.00
42385;BME280;28042;43.986;22.860;2023-07-09T06:26:16;101511.00;;;30.09;36.87
42385;BME280;28042;43.986;22.860;2023-07-09T06:28:42;101487.06;;;29.61;36.90
42385;BME280;28042;43.986;22.860;2023-07-09T06:31:07;101505.00;;;29.65;36.93
42385;BME280;28042;43.986;22.860;2023-07-09T06:33:33;101487.50;;;28.92;38.31
42385;BME280;28042;43.986;22.860;2023-07-09T06:36:00;101512.00;;;29.11;37.80
42385;BME280;28042;43.986;22.860;2023-07-09T06:38:28;101479.63;;;29.32;38.05
42385;BME280;28042;43.986;22.860;2023-07-09T06:40:54;101500.06;;;29.38;37.90
42385;BME280;28042;43.986;22.860;2023-07-09T06:43:20;101477.00;;;29.03;38.79
42385;BME280;28042;43.986;22.860;2023-07-09T06:45:55;101505.56;;;28.86;39.42
42385;BME280;28042;43.986;22.860;2023-07-09T06:48:21;101499.91;;;28.67;39.85
42385;BME280;28042;43.986;22.860;2023-07-09T06:50:48;101473.34;;;28.07;41.27
42385;BME280;28042;43.986;22.860;2023-07-09T06:53:13;101490.91;;;27.88;41.33
42385;BME280;28042;43.986;22.860;2023-07-09T06:55:39;101486.41;;;27.19;43.37
42385;BME280;28042;43.986;22.860;2023-07-09T06:58:05;101462.47;;;26.88;43.52
42385;BME280;28042;43.986;22.860;2023-07-09T07:00:30;101482.59;;;26.95;45.25
42385;BME280;28042;43.986;22.860;2023-07-09T07:02:56;101461.69;;;26.77;44.46
42385;BME280;28042;43.986;22.860;2023-07-09T07:05:22;101447.88;;;26.91;46.03
42385;BME280;28042;43.986;22.860;2023-07-09T07:07:47;101458.00;;;26.87;45.18
42385;BME280;28042;43.986;22.860;2023-07-09T07:10:13;101483.19;;;26.87;44.51
42385;BME280;28042;43.986;22.860;2023-07-09T07:12:44;101456.94;;;26.72;44.97
42385;BME280;28042;43.986;22.860;2023-07-09T07:15:12;101479.34;;;26.72;44.91
42385;BME280;28042;43.986;22.860;2023-07-09T07:17:39;101459.84;;;26.47;44.69
42385;BME280;28042;43.986;22.860;2023-07-09T07:20:05;101478.75;;;26.75;45.15
42385;BME280;28042;43.986;22.860;2023-07-09T07:22:31;101454.75;;;26.64;45.12
42385;BME280;28042;43.986;22.860;2023-07-09T07:24:56;101484.94;;;26.72;44.57
42385;BME280;28042;43.986;22.860;2023-07-09T07:27:22;101454.19;;;26.67;43.68
42385;BME280;28042;43.986;22.860;2023-07-09T07:29:47;101473.97;;;26.86;44.72
42385;BME280;28042;43.986;22.860;2023-07-09T07:32:13;101470.22;;;27.01;44.98
42385;BME280;28042;43.986;22.860;2023-07-09T07:34:38;101458.56;;;26.84;43.74
42385;BME280;28042;43.986;22.860;2023-07-09T07:37:04;101447.69;;;26.77;43.67
42385;BME280;28042;43.986;22.860;2023-07-09T07:39:29;101457.47;;;26.80;44.78
42385;BME280;28042;43.986;22.860;2023-07-09T07:41:55;101457.69;;;26.93;43.90
42385;BME280;28042;43.986;22.860;2023-07-09T07:44:21;101464.31;;;27.13;44.65
42385;BME280;28042;43.986;22.860;2023-07-09T07:46:47;101462.28;;;27.23;44.23
42385;BME280;28042;43.986;22.860;2023-07-09T07:49:12;101470.03;;;27.37;44.35
42385;BME280;28042;43.986;22.860;2023-07-09T07:51:38;101468.25;;;27.07;43.71
42385;BME280;28042;43.986;22.860;2023-07-09T07:54:04;101470.69;;;27.18;43.70
42385;BME280;28042;43.986;22.860;2023-07-09T07:56:30;101465.16;;;27.08;43.64
42385;BME280;28042;43.986;22.860;2023-07-09T07:58:55;101469.47;;;27.35;44.17
42385;BME280;28042;43.986;22.860;2023-07-09T08:01:21;101451.22;;;27.03;43.23
42385;BME280;28042;43.986;22.860;2023-07-09T08:03:46;101452.34;;;26.97;44.54
42385;BME280;28042;43.986;22.860;2023-07-09T08:06:11;101467.34;;;27.16;43.77
42385;BME280;28042;43.986;22.860;2023-07-09T08:08:37;101471.22;;;27.25;44.01
42385;BME280;28042;43.986;22.860;2023-07-09T08:11:05;101463.53;;;27.41;43.90
42385;BME280;28042;43.986;22.860;2023-07-09T08:13:36;101477.94;;;27.29;43.77
42385;BME280;28042;43.986;22.860;2023-07-09T08:16:03;101450.47;;;27.26;43.86
42385;BME280;28042;43.986;22.860;2023-07-09T08:18:29;101460.56;;;27.67;42.96
42385;BME280;28042;43.986;22.860;2023-07-09T08:20:54;101432.81;;;27.60;43.64
42385;BME280;28042;43.986;22.860;2023-07-09T08:23:20;101455.16;;;27.75;43.11
42385;BME280;28042;43.986;22.860;2023-07-09T08:25:56;101452.84;;;27.82;43.97
42385;BME280;28042;43.986;22.860;2023-07-09T08:28:22;101447.28;;;28.06;42.94
42385;BME280;28042;43.986;22.860;2023-07-09T08:30:47;101439.47;;;27.74;42.24
42385;BME280;28042;43.986;22.860;2023-07-09T08:33:13;101456.91;;;27.95;42.62
42385;BME280;28042;43.986;22.860;2023-07-09T08:35:42;101461.72;;;28.19;40.73
42385;BME280;28042;43.986;22.860;2023-07-09T08:38:07;101457.16;;;27.99;42.23
42385;BME280;28042;43.986;22.860;2023-07-09T08:40:33;101425.34;;;27.84;41.59
42385;BME280;28042;43.986;22.860;2023-07-09T08:43:15;101460.00;;;27.94;39.55
42385;BME280;28042;43.986;22.860;2023-07-09T08:48:29;101454.91;;;28.01;40.76
42385;BME280;28042;43.986;22.860;2023-07-09T08:51:18;101448.78;;;27.94;40.39
42385;BME280;28042;43.986;22.860;2023-07-09T08:53:54;101418.34;;;27.82;41.27
42385;BME280;28042;43.986;22.860;2023-07-09T08:56:24;101423.50;;;27.99;41.96
42385;BME280;28042;43.986;22.860;2023-07-09T08:58:50;101444.53;;;28.25;41.81
42385;BME280;28042;43.986;22.860;2023-07-09T09:01:40;101421.00;;;28.21;41.45
42385;BME280;28042;43.986;22.860;2023-07-09T09:04:24;101434.88;;;28.36;40.69
42385;BME280;28042;43.986;22.860;2023-07-09T09:07:18;101442.59;;;28.21;41.35
42385;BME280;28042;43.986;22.860;2023-07-09T09:09:57;101447.78;;;28.37;42.22
42385;BME280;28042;43.986;22.860;2023-07-09T09:15:18;101429.88;;;28.33;40.89
42385;BME280;28042;43.986;22.860;2023-07-09T09:17:51;101442.75;;;28.58;41.51
42385;BME280;28042;43.986;22.860;2023-07-09T09:20:20;101411.00;;;28.58;41.14
42385;BME280;28042;43.986;22.860;2023-07-09T09:25:33;101441.53;;;28.83;42.59
42385;BME280;28042;43.986;22.860;2023-07-09T09:28:01;101443.31;;;28.79;41.10
42385;BME280;28042;43.986;22.860;2023-07-09T09:30:28;101455.88;;;28.63;41.28
42385;BME280;28042;43.986;22.860;2023-07-09T09:32:59;101442.19;;;28.56;40.99
42385;BME280;28042;43.986;22.860;2023-07-09T09:35:33;101444.03;;;28.66;41.00
42385;BME280;28042;43.986;22.860;2023-07-09T09:37:59;101448.66;;;28.57;41.02
42385;BME280;28042;43.986;22.860;2023-07-09T09:40:29;101440.59;;;28.50;42.54
42385;BME280;28042;43.986;22.860;2023-07-09T09:42:58;101406.66;;;28.47;40.45
42385;BME280;28042;43.986;22.860;2023-07-09T09:45:33;101432.28;;;28.64;39.93
42385;BME280;28042;43.986;22.860;2023-07-09T09:48:01;101415.03;;;28.52;40.19
42385;BME280;28042;43.986;22.860;2023-07-09T09:50:27;101441.06;;;29.00;40.07
42385;BME280;28042;43.986;22.860;2023-07-09T09:52:55;101432.53;;;28.86;39.98
42385;BME280;28042;43.986;22.860;2023-07-09T09:55:28;101411.19;;;28.85;40.05
42385;BME280;28042;43.986;22.860;2023-07-09T09:57:54;101408.09;;;29.06;39.74
42385;BME280;28042;43.986;22.860;2023-07-09T10:00:25;101434.16;;;29.11;37.49
42385;BME280;28042;43.986;22.860;2023-07-09T10:02:57;101419.34;;;29.06;37.98
42385;BME280;28042;43.986;22.860;2023-07-09T10:05:34;101430.00;;;29.41;38.47
42385;BME280;28042;43.986;22.860;2023-07-09T10:10:30;101408.75;;;29.54;38.74
42385;BME280;28042;43.986;22.860;2023-07-09T10:15:56;101418.13;;;29.44;38.44
42385;BME280;28042;43.986;22.860;2023-07-09T10:18:40;101424.69;;;29.40;37.99
42385;BME280;28042;43.986;22.860;2023-07-09T10:21:19;101419.06;;;29.40;38.85
42385;BME280;28042;43.986;22.860;2023-07-09T10:23:54;101415.00;;;29.65;38.54
42385;BME280;28042;43.986;22.860;2023-07-09T10:26:45;101416.69;;;29.66;38.59
42385;BME280;28042;43.986;22.860;2023-07-09T10:29:28;101419.75;;;29.50;38.84
42385;BME280;28042;43.986;22.860;2023-07-09T10:35:32;101421.44;;;29.33;38.37
42385;BME280;28042;43.986;22.860;2023-07-09T10:38:06;101421.63;;;29.36;39.44
42385;BME280;28042;43.986;22.860;2023-07-09T10:40:40;101397.59;;;29.30;39.70
42385;BME280;28042;43.986;22.860;2023-07-09T10:43:13;101392.31;;;29.42;39.37
42385;BME280;28042;43.986;22.860;2023-07-09T10:45:44;101393.88;;;29.67;39.15
42385;BME280;28042;43.986;22.860;2023-07-09T10:48:16;101417.72;;;29.70;39.33
42385;BME280;28042;43.986;22.860;2023-07-09T10:50:48;101386.69;;;29.42;38.98
42385;BME280;28042;43.986;22.860;2023-07-09T10:56:02;101406.09;;;29.90;39.96
42385;BME280;28042;43.986;22.860;2023-07-09T10:58:41;101399.84;;;29.93;40.65
42385;BME280;28042;43.986;22.860;2023-07-09T11:01:12;101390.66;;;29.74;40.51
42385;BME280;28042;43.986;22.860;2023-07-09T11:03:51;101399.25;;;30.10;40.21
42385;BME280;28042;43.986;22.860;2023-07-09T11:08:53;101396.56;;;30.32;39.99
42385;BME280;28042;43.986;22.860;2023-07-09T11:11:36;101374.31;;;30.31;40.55
42385;BME280;28042;43.986;22.860;2023-07-09T11:14:21;101391.13;;;30.36;40.66
42385;BME280;28042;43.986;22.860;2023-07-09T11:16:49;101370.91;;;30.34;41.65
42385;BME280;28042;43.986;22.860;2023-07-09T11:19:18;101371.94;;;30.24;41.21
42385;BME280;28042;43.986;22.860;2023-07-09T11:22:06;101392.38;;;30.30;40.95
42385;BME280;28042;43.986;22.860;2023-07-09T11:27:23;101394.84;;;30.45;38.94
42385;BME280;28042;43.986;22.860;2023-07-09T11:29:59;101394.44;;;30.38;38.47
42385;BME280;28042;43.986;22.860;2023-07-09T11:32:26;101381.09;;;30.30;34.80
42385;BME280;28042;43.986;22.860;2023-07-09T11:34:52;101394.97;;;30.13;33.99
42385;BME280;28042;43.986;22.860;2023-07-09T11:37:20;101400.50;;;30.18;34.74
42385;BME280;28042;43.986;22.860;2023-07-09T11:39:48;101392.34;;;30.02;35.58
42385;BME280;28042;43.986;22.860;2023-07-09T11:42:25;101394.66;;;30.28;34.13
42385;BME280;28042;43.986;22.860;2023-07-09T11:44:52;101393.28;;;30.39;33.81
42385;BME280;28042;43.986;22.860;2023-07-09T11:47:25;101360.47;;;30.21;32.78
42385;BME280;28042;43.986;22.860;2023-07-09T11:52:33;101389.72;;;30.61;30.07
42385;BME280;28042;43.986;22.860;2023-07-09T11:55:21;101392.56;;;30.47;27.94
42385;BME280;28042;43.986;22.860;2023-07-09T11:57:55;101358.53;;;30.57;28.79
42385;BME280;28042;43.986;22.860;2023-07-09T12:00:21;101387.72;;;30.75;28.72
42385;BME280;28042;43.986;22.860;2023-07-09T12:02:47;101386.28;;;30.78;31.64
42385;BME280;28042;43.986;22.860;2023-07-09T12:05:14;101381.94;;;30.94;33.65
42385;BME280;28042;43.986;22.860;2023-07-09T12:07:44;101391.44;;;31.20;29.95
42385;BME280;28042;43.986;22.860;2023-07-09T12:10:32;101386.50;;;31.04;31.45
42385;BME280;28042;43.986;22.860;2023-07-09T12:12:59;101392.06;;;30.95;31.93
42385;BME280;28042;43.986;22.860;2023-07-09T12:15:27;101386.28;;;31.00;29.85
42385;BME280;28042;43.986;22.860;2023-07-09T12:17:56;101379.13;;;30.94;29.99
42385;BME280;28042;43.986;22.860;2023-07-09T12:20:22;101360.41;;;30.76;30.44
42385;BME280;28042;43.986;22.860;2023-07-09T12:22:48;101348.28;;;30.75;29.79
42385;BME280;28042;43.986;22.860;2023-07-09T12:25:27;101360.91;;;31.00;30.17
42385;BME280;28042;43.986;22.860;2023-07-09T12:27:54;101363.63;;;31.05;29.16
42385;BME280;28042;43.986;22.860;2023-07-09T12:30:20;101381.19;;;31.02;29.04
42385;BME280;28042;43.986;22.860;2023-07-09T12:32:48;101376.69;;;31.01;30.28
42385;BME280;28042;43.986;22.860;2023-07-09T12:35:20;101363.13;;;31.03;29.62
42385;BME280;28042;43.986;22.860;2023-07-09T12:37:48;101342.66;;;30.98;29.49
42385;BME280;28042;43.986;22.860;2023-07-09T12:40:28;101377.44;;;31.29;29.74
42385;BME280;28042;43.986;22.860;2023-07-09T12:42:54;101346.09;;;31.31;29.42
42385;BME280;28042;43.986;22.860;2023-07-09T12:45:23;101353.50;;;31.27;29.07
42385;BME280;28042;43.986;22.860;2023-07-09T12:47:49;101370.94;;;31.06;29.61
42385;BME280;28042;43.986;22.860;2023-07-09T12:50:20;101345.94;;;30.91;28.18
42385;BME280;28042;43.986;22.860;2023-07-09T12:52:47;101362.34;;;31.34;27.49
42385;BME280;28042;43.986;22.860;2023-07-09T12:55:22;101336.22;;;31.19;26.82
42385;BME280;28042;43.986;22.860;2023-07-09T12:57:48;101354.16;;;31.23;28.19
42385;BME280;28042;43.986;22.860;2023-07-09T13:00:18;101357.88;;;31.33;28.82
42385;BME280;28042;43.986;22.860;2023-07-09T13:02:44;101334.75;;;31.53;29.26
42385;BME280;28042;43.986;22.860;2023-07-09T13:05:22;101341.34;;;31.40;27.94
42385;BME280;28042;43.986;22.860;2023-07-09T13:07:53;101346.88;;;31.22;30.09
42385;BME280;28042;43.986;22.860;2023-07-09T13:10:24;101342.63;;;31.34;29.97
42385;BME280;28042;43.986;22.860;2023-07-09T13:12:54;101316.78;;;31.18;31.76
42385;BME280;28042;43.986;22.860;2023-07-09T13:18:05;101331.84;;;31.67;35.06